Time;durP1;ratioP1;P1;durP2;ratioP2;P2;SDS_P1;SDS_P2;PMS_P1;PMS_P2;Temp;Humidity;BMP_temperature;BMP_pressure;BME280_temperature;BME280_humidity;BME280_pressure;Samples;Min_cycle;Max_cycle;Signal;HPM_P1;HPM_P2
2022/10/01 00:00:07;;;;;;;12.85;6.78;;;12.70;99.90;;;;;;5053699;28;20505;-59
2022/10/01 00:02:36;;;;;;;10.35;6.65;;;12.40;99.90;;;;;;5053750;28;20052;-59
2022/10/01 00:05:03;;;;;;;9.55;6.30;;;12.10;99.90;;;;;;5053480;28;20475;-59
2022/10/01 00:07:29;;;;;;;9.13;6.68;;;;;;;;;;5053462;28;20057;-59
2022/10/01 00:09:59;;;;;;;9.52;7.03;;;12.00;99.90;;;;;;5053787;28;20461;-59
2022/10/01 00:12:25;;;;;;;10.27;7.07;;;11.70;99.90;;;;;;5053562;28;20064;-59
2022/10/01 00:14:51;;;;;;;8.77;7.38;;;12.00;99.90;;;;;;5052294;28;20442;-59
2022/10/01 00:17:17;;;;;;;13.50;7.45;;;11.60;99.90;;;;;;5053395;28;20037;-60
2022/10/01 00:19:43;;;;;;;13.02;7.90;;;12.00;99.90;;;;;;5052119;28;20051;-59
2022/10/01 00:22:13;;;;;;;10.98;7.47;;;12.20;99.90;;;;;;5053559;28;20112;-59
2022/10/01 00:24:39;;;;;;;14.35;8.00;;;;;;;;;;5052199;28;20052;-59
2022/10/01 00:27:05;;;;;;;9.48;7.90;;;;;;;;;;5053457;28;20394;-59
2022/10/01 00:29:33;;;;;;;9.18;8.10;;;11.60;99.90;;;;;;5053327;28;20037;-60
2022/10/01 00:31:59;;;;;;;9.60;7.82;;;;;;;;;;5053278;28;20067;-59
2022/10/01 00:34:27;;;;;;;11.63;8.07;;;11.60;99.90;;;;;;5053143;28;20040;-59
2022/10/01 00:36:53;;;;;;;14.27;8.45;;;11.70;99.90;;;;;;5053184;28;20072;-59
2022/10/01 00:39:20;;;;;;;12.43;8.70;;;;;;;;;;5053246;28;20052;-59
2022/10/01 00:41:46;;;;;;;10.57;8.90;;;11.50;99.90;;;;;;5053325;28;20073;-59
2022/10/01 00:44:34;;;;;;;12.48;8.60;;;11.50;99.90;;;;;;5053259;28;20116;-60
2022/10/01 00:47:32;;;;;;;12.18;8.75;;;11.30;99.90;;;;;;5051980;28;20041;-63
2022/10/01 00:50:18;;;;;;;10.40;8.82;;;10.60;99.90;;;;;;5053170;28;20492;-60
2022/10/01 00:52:54;;;;;;;;;;;11.50;99.90;;;;;;5053620;28;20104;-60
2022/10/01 00:55:32;;;;;;;12.48;8.93;;;11.40;99.90;;;;;;5051922;28;19924;-59
2022/10/01 00:57:59;;;;;;;10.50;8.82;;;11.30;99.90;;;;;;5053306;28;20045;-59
2022/10/01 01:00:25;;;;;;;11.35;8.82;;;11.90;99.90;;;;;;5053103;28;20044;-59
2022/10/01 01:02:56;;;;;;;11.88;9.90;;;10.90;99.90;;;;;;5052040;28;20140;-59
2022/10/01 01:05:22;;;;;;;13.82;9.68;;;12.20;99.90;;;;;;5051559;28;20045;-59
2022/10/01 01:07:52;;;;;;;14.70;10.02;;;11.30;99.90;;;;;;5052926;28;20128;-59
2022/10/01 01:10:33;;;;;;;13.00;10.50;;;12.30;99.90;;;;;;5053102;28;20124;-59
2022/10/01 01:13:16;;;;;;;12.55;10.45;;;11.30;99.90;;;;;;5053050;28;20045;-59
2022/10/01 01:15:54;;;;;;;15.10;10.80;;;11.30;99.90;;;;;;5052832;28;20072;-59
2022/10/01 01:18:51;;;;;;;12.07;10.23;;;12.40;99.90;;;;;;5051728;28;20120;-59
2022/10/01 01:21:28;;;;;;;13.75;10.00;;;11.30;99.90;;;;;;5052954;28;20076;-59
2022/10/01 01:24:03;;;;;;;15.13;9.98;;;11.20;99.90;;;;;;5052812;28;20045;-62
2022/10/01 01:26:53;;;;;;;13.93;10.43;;;11.10;99.90;;;;;;5051475;28;20041;-62
2022/10/01 01:29:20;;;;;;;14.88;10.77;;;11.20;99.90;;;;;;5052668;28;20049;-61
2022/10/01 01:31:49;;;;;;;13.88;10.98;;;10.80;99.90;;;;;;5052849;28;20094;-62
2022/10/01 01:34:23;;;;;;;16.27;10.35;;;11.20;99.90;;;;;;5052879;28;20033;-62
2022/10/01 01:36:57;;;;;;;14.05;11.20;;;11.20;99.90;;;;;;5052665;28;20048;-62
2022/10/01 01:39:28;;;;;;;13.48;10.80;;;11.10;99.90;;;;;;5052866;28;20115;-62
2022/10/01 01:41:59;;;;;;;14.70;9.85;;;11.30;99.90;;;;;;5052655;28;20033;-62
2022/10/01 01:44:31;;;;;;;14.10;10.65;;;11.10;99.90;;;;;;5052732;28;20117;-62
2022/10/01 01:46:59;;;;;;;12.63;10.00;;;12.00;99.90;;;;;;5052633;28;20043;-63
2022/10/01 01:49:26;;;;;;;14.57;10.80;;;11.20;99.90;;;;;;5052504;28;20045;-63
2022/10/01 01:52:12;;;;;;;18.65;10.98;;;11.00;99.90;;;;;;5052688;28;20045;-64
2022/10/01 01:54:39;;;;;;;12.10;9.60;;;11.10;99.90;;;;;;5051531;28;20396;-64
2022/10/01 01:57:06;;;;;;;13.02;10.48;;;10.90;99.90;;;;;;5052606;28;20041;-63
2022/10/01 01:59:34;;;;;;;15.43;10.40;;;11.90;99.90;;;;;;5051175;28;20040;-63
2022/10/01 02:02:01;;;;;;;12.90;10.70;;;11.00;99.90;;;;;;5052474;28;20083;-63
2022/10/01 02:04:53;;;;;;;18.65;11.52;;;11.10;99.90;;;;;;5055897;28;20063;-63
2022/10/01 02:07:32;;;;;;;13.80;10.45;;;11.20;99.90;;;;;;5055756;28;20430;-63
2022/10/01 02:10:22;;;;;;;11.98;10.15;;;11.50;99.90;;;;;;5055869;28;20130;-63
2022/10/01 02:12:48;;;;;;;14.52;11.10;;;;;;;;;;5056232;28;20037;-60
2022/10/01 02:15:34;;;;;;;13.52;11.32;;;11.00;99.90;;;;;;5055910;28;20045;-59
2022/10/01 02:18:52;;;;;;;14.23;10.52;;;11.20;99.90;;;;;;5055027;28;20132;-59
2022/10/01 02:21:27;;;;;;;13.45;10.05;;;11.00;99.90;;;;;;5046867;28;20045;-59
2022/10/01 02:24:00;;;;;;;14.30;10.90;;;11.10;99.90;;;;;;5055871;28;20124;-59
2022/10/01 02:26:29;;;;;;;16.38;12.07;;;10.30;99.90;;;;;;5055908;28;20334;-59
2022/10/01 02:29:00;;;;;;;15.65;11.13;;;11.00;99.90;;;;;;5055583;28;20072;-59
2022/10/01 02:31:28;;;;;;;14.45;11.57;;;10.90;99.90;;;;;;5055612;28;20033;-59
2022/10/01 02:33:58;;;;;;;13.50;10.82;;;11.10;99.90;;;;;;5055721;28;20044;-59
2022/10/01 02:36:25;;;;;;;15.07;10.45;;;11.10;99.90;;;;;;5054493;28;20094;-59
2022/10/01 02:38:57;;;;;;;14.38;10.95;;;11.20;99.90;;;;;;5054350;28;20076;-59
2022/10/01 02:41:28;;;;;;;13.18;10.73;;;11.00;99.90;;;;;;5055232;28;20135;-58
2022/10/01 02:44:11;;;;;;;13.40;9.85;;;11.70;99.90;;;;;;5055653;28;20116;-58
2022/10/01 02:46:56;;;;;;;13.90;9.63;;;11.00;99.90;;;;;;5054154;28;20461;-58
2022/10/01 02:49:23;;;;;;;12.70;9.93;;;11.00;99.90;;;;;;5055188;28;20060;-58
2022/10/01 02:52:10;;;;;;;11.35;9.02;;;11.00;99.90;;;;;;5055045;28;20082;-58
2022/10/01 02:54:45;;;;;;;11.35;9.43;;;11.50;99.90;;;;;;5054385;28;20400;-58
2022/10/01 02:57:25;;;;;;;11.32;9.10;;;11.10;99.90;;;;;;5055099;28;20089;-58
2022/10/01 02:59:57;;;;;;;10.25;8.65;;;11.10;99.90;;;;;;5055150;28;20428;-59
2022/10/01 03:02:27;;;;;;;11.50;8.73;;;11.20;99.90;;;;;;5055275;28;20087;-58
2022/10/01 03:04:57;;;;;;;11.32;8.75;;;11.10;99.90;;;;;;5055278;28;20147;-58
2022/10/01 03:07:28;;;;;;;11.10;8.43;;;11.10;99.90;;;;;;5054692;28;20132;-59
2022/10/01 03:09:56;;;;;;;10.82;8.15;;;11.20;99.90;;;;;;5054994;28;20104;-59
2022/10/01 03:12:22;;;;;;;11.02;8.30;;;11.20;99.90;;;;;;5053739;28;20424;-59
2022/10/01 03:14:53;;;;;;;10.38;8.35;;;11.10;99.90;;;;;;5053593;28;20080;-59
2022/10/01 03:17:19;;;;;;;8.73;7.82;;;12.40;99.90;;;;;;5054743;28;20044;-59
2022/10/01 03:19:45;;;;;;;9.88;7.90;;;;;;;;;;5054533;28;20107;-59
2022/10/01 03:22:17;;;;;;;9.75;7.60;;;11.70;99.90;;;;;;5054744;28;20073;-59
2022/10/01 03:24:43;;;;;;;9.52;7.47;;;11.10;99.90;;;;;;5053458;28;20041;-59
2022/10/01 03:27:09;;;;;;;7.68;6.85;;;11.10;99.90;;;;;;5054502;28;20496;-59
2022/10/01 03:29:35;;;;;;;6.72;5.95;;;12.00;99.90;;;;;;5053580;28;20049;-59
2022/10/01 03:32:01;;;;;;;9.48;6.43;;;11.20;99.90;;;;;;5054560;28;20119;-59
2022/10/01 03:34:27;;;;;;;7.43;6.18;;;11.20;99.90;;;;;;5054554;28;20041;-59
2022/10/01 03:36:53;;;;;;;9.23;6.47;;;11.30;99.90;;;;;;5054782;28;20091;-58
2022/10/01 03:39:19;;;;;;;6.65;5.47;;;11.30;99.90;;;;;;5054175;28;20040;-58
2022/10/01 03:41:45;;;;;;;7.32;6.07;;;11.20;99.90;;;;;;5052907;28;20059;-58
2022/10/01 03:44:12;;;;;;;8.50;6.10;;;11.20;99.90;;;;;;5054432;28;20041;-58
2022/10/01 03:46:38;;;;;;;7.43;5.97;;;;;;;;;;5053952;28;20087;-59
2022/10/01 03:49:04;;;;;;;5.93;5.32;;;11.60;99.90;;;;;;5054284;28;20041;-59
2022/10/01 03:51:31;;;;;;;7.93;5.90;;;11.10;99.90;;;;;;5054181;28;20201;-58
2022/10/01 03:53:59;;;;;;;6.43;5.70;;;10.20;99.90;;;;;;5053989;28;20120;-62
2022/10/01 03:56:25;;;;;;;6.55;5.47;;;;;;;;;;5053957;28;20374;-63
2022/10/01 03:58:51;;;;;;;8.38;5.68;;;11.20;99.90;;;;;;5054128;28;20385;-62
2022/10/01 04:01:17;;;;;;;6.18;5.43;;;;;;;;;;5053931;28;20045;-63
2022/10/01 04:03:43;;;;;;;8.27;5.35;;;11.10;99.90;;;;;;5053863;28;20179;-63
2022/10/01 04:06:09;;;;;;;6.57;5.57;;;11.20;99.90;;;;;;5053465;28;20549;-63
2022/10/01 04:08:37;;;;;;;7.05;5.68;;;11.30;99.90;;;;;;5053673;28;20397;-63
2022/10/01 04:11:02;;;;;;;6.63;5.13;;;11.60;99.90;;;;;;5053604;28;20502;-63
2022/10/01 04:13:28;;;;;;;7.55;5.20;;;11.20;99.90;;;;;;5053869;28;20041;-63
2022/10/01 04:16:00;;;;;;;6.85;5.13;;;11.70;99.90;;;;;;5053911;28;20045;-62
2022/10/01 04:18:27;;;;;;;6.95;5.53;;;11.20;99.90;;;;;;5053740;28;20461;-62
2022/10/01 04:20:53;;;;;;;7.35;5.53;;;10.20;99.90;;;;;;5052397;28;20397;-62
2022/10/01 04:23:22;;;;;;;6.70;5.60;;;11.10;99.90;;;;;;5053362;28;20037;-62
2022/10/01 04:25:49;;;;;;;6.35;5.38;;;11.50;99.90;;;;;;5053127;28;20477;-62
2022/10/01 04:28:20;;;;;;;7.82;5.32;;;11.00;99.90;;;;;;5053467;28;20385;-62
2022/10/01 04:30:46;;;;;;;5.80;5.15;;;;;;;;;;5053397;28;20037;-62
2022/10/01 04:33:16;;;;;;;5.53;4.90;;;11.20;99.90;;;;;;5052878;28;20053;-63
2022/10/01 04:35:47;;;;;;;8.38;5.25;;;11.20;99.90;;;;;;5053499;28;20048;-62
2022/10/01 04:38:19;;;;;;;6.63;4.80;;;12.00;99.90;;;;;;5053593;28;20128;-62
2022/10/01 04:40:45;;;;;;;5.40;4.72;;;;;;;;;;5053320;28;20412;-62
2022/10/01 04:43:17;;;;;;;5.55;4.90;;;11.20;99.90;;;;;;5053484;28;20401;-63
2022/10/01 04:45:43;;;;;;;5.15;4.60;;;11.20;99.90;;;;;;5053271;28;20400;-63
2022/10/01 04:48:12;;;;;;;4.80;4.30;;;;;;;;;;5053478;28;20037;-63
2022/10/01 04:50:40;;;;;;;5.55;4.40;;;12.30;99.90;;;;;;5053118;28;20052;-63
2022/10/01 04:53:14;;;;;;;4.93;4.43;;;10.80;99.90;;;;;;5053333;28;20040;-63
2022/10/01 04:55:47;;;;;;;5.93;4.75;;;11.90;99.90;;;;;;5051260;28;20053;-63
2022/10/01 04:58:12;;;;;;;5.22;4.38;;;11.80;99.90;;;;;;5053574;28;20060;-63
2022/10/01 05:01:00;;;;;;;5.00;4.50;;;11.20;99.90;;;;;;5052961;28;20094;-64
2022/10/01 05:03:33;;;;;;;5.38;4.20;;;10.90;99.90;;;;;;5052963;28;20132;-62
2022/10/01 05:06:02;;;;;;;5.53;4.20;;;11.60;99.90;;;;;;5052690;28;20079;-64
2022/10/01 05:08:30;;;;;;;4.40;3.90;;;11.40;99.90;;;;;;5053403;28;20044;-63
2022/10/01 05:10:58;;;;;;;4.72;4.10;;;11.60;99.90;;;;;;5052683;28;20087;-62
2022/10/01 05:13:28;;;;;;;4.80;4.10;;;10.20;99.90;;;;;;5052795;28;20051;-61
2022/10/01 05:15:59;;;;;;;4.90;3.90;;;;;;;;;;5052976;28;20044;-61
2022/10/01 05:18:25;;;;;;;4.50;4.05;;;11.60;99.90;;;;;;5052853;28;20045;-61
2022/10/01 05:20:51;;;;;;;4.10;3.70;;;11.70;99.90;;;;;;5051787;28;20041;-62
2022/10/01 05:23:20;;;;;;;4.47;4.03;;;11.30;99.90;;;;;;5052645;28;20049;-62
2022/10/01 05:25:46;;;;;;;4.57;4.18;;;;;;;;;;5052757;28;20052;-62
2022/10/01 05:28:12;;;;;;;4.45;4.05;;;11.50;99.90;;;;;;5052160;28;20049;-62
2022/10/01 05:30:43;;;;;;;6.30;4.18;;;12.30;99.90;;;;;;5053049;28;20397;-62
2022/10/01 05:33:18;;;;;;;5.65;4.50;;;;;;;;;;5052829;28;20045;-62
2022/10/01 05:35:45;;;;;;;5.90;4.90;;;11.60;99.90;;;;;;5052817;28;20041;-62
2022/10/01 05:38:14;;;;;;;6.32;4.60;;;11.70;99.90;;;;;;5054438;28;20052;-61
2022/10/01 05:40:44;;;;;;;6.72;4.90;;;11.40;99.90;;;;;;5055049;28;20060;-61
2022/10/01 05:43:10;;;;;;;5.80;4.80;;;11.60;99.90;;;;;;5056920;28;20041;-61
2022/10/01 05:45:38;;;;;;;6.00;5.18;;;11.60;99.90;;;;;;5056528;28;20041;-61
2022/10/01 05:48:09;;;;;;;6.15;4.95;;;11.60;99.90;;;;;;5056410;28;20047;-62
2022/10/01 05:50:41;;;;;;;5.72;4.57;;;11.80;99.90;;;;;;5055064;28;20045;-62
2022/10/01 05:53:10;;;;;;;5.65;4.90;;;12.70;99.90;;;;;;5056322;28;20045;-62
2022/10/01 05:55:35;;;;;;;5.50;5.00;;;11.70;99.90;;;;;;5056523;28;20084;-61
2022/10/01 05:58:21;;;;;;;5.85;5.05;;;11.80;99.90;;;;;;5056455;28;20045;-61
2022/10/01 06:00:47;;;;;;;6.05;5.43;;;11.80;99.90;;;;;;5056256;28;20119;-61
2022/10/01 06:03:16;;;;;;;5.93;5.32;;;11.70;99.90;;;;;;5057007;28;20096;-62
2022/10/01 06:05:45;;;;;;;5.72;5.00;;;11.70;99.90;;;;;;5056209;28;20047;-61
2022/10/01 06:08:15;;;;;;;7.25;5.55;;;12.00;99.90;;;;;;5055985;28;20057;-57
2022/10/01 06:10:42;;;;;;;6.20;5.55;;;11.60;99.90;;;;;;5054887;28;20047;-58
2022/10/01 06:13:08;;;;;;;6.10;5.50;;;12.00;99.90;;;;;;5055440;28;20073;-62
2022/10/01 06:15:40;;;;;;;6.78;5.60;;;11.70;99.90;;;;;;5055873;28;20045;-63
2022/10/01 06:18:10;;;;;;;6.70;5.68;;;11.70;99.90;;;;;;5055721;28;20041;-63
2022/10/01 06:20:37;;;;;;;6.22;5.55;;;11.70;99.90;;;;;;5056061;28;20405;-62
2022/10/01 06:23:10;;;;;;;9.00;6.40;;;12.00;99.90;;;;;;5055510;28;20103;-61
2022/10/01 06:25:37;;;;;;;8.98;6.30;;;12.00;99.90;;;;;;5055574;28;20044;-57
2022/10/01 06:28:05;;;;;;;6.72;6.13;;;12.40;99.90;;;;;;5055828;28;20099;-58
2022/10/01 06:30:33;;;;;;;7.53;6.40;;;12.30;99.90;;;;;;5037731;28;20052;-58
2022/10/01 06:33:01;;;;;;;9.13;6.47;;;12.20;99.90;;;;;;5055665;28;20041;-58
2022/10/01 06:35:28;;;;;;;10.50;6.25;;;12.10;99.90;;;;;;5055735;28;20037;-62
2022/10/01 06:37:54;;;;;;;7.47;6.32;;;12.20;99.90;;;;;;5055363;28;20059;-62
2022/10/01 06:40:21;;;;;;;12.57;6.57;;;12.50;99.90;;;;;;5055405;28;20037;-62
2022/10/01 06:42:50;;;;;;;9.70;6.63;;;12.60;99.90;;;;;;5055504;28;20045;-62
2022/10/01 06:45:19;;;;;;;11.35;6.80;;;12.10;99.90;;;;;;5054051;28;20507;-62
2022/10/01 06:47:56;;;;;;;7.60;6.72;;;12.00;99.90;;;;;;5055322;28;20047;-62
2022/10/01 06:50:23;;;;;;;9.63;6.78;;;12.50;99.90;;;;;;5055232;28;20037;-63
2022/10/01 06:52:51;;;;;;;9.02;7.20;;;12.30;99.90;;;;;;5055125;28;20473;-63
2022/10/01 06:55:26;;;;;;;8.73;7.00;;;12.30;99.90;;;;;;5053994;28;20374;-62
2022/10/01 06:57:58;;;;;;;11.75;7.43;;;12.30;99.90;;;;;;5055290;28;20076;-63
2022/10/01 07:00:29;;;;;;;11.15;7.53;;;12.70;99.90;;;;;;5055322;28;20368;-58
2022/10/01 07:02:56;;;;;;;12.27;8.13;;;12.80;99.90;;;;;;5055083;28;20041;-58
2022/10/01 07:05:25;;;;;;;11.13;8.13;;;12.10;99.90;;;;;;5054884;28;20489;-58
2022/10/01 07:07:52;;;;;;;9.60;7.65;;;12.50;99.90;;;;;;5054633;28;20052;-58
2022/10/01 07:10:24;;;;;;;9.75;8.10;;;12.20;99.90;;;;;;5054674;28;20562;-58
2022/10/01 07:12:50;;;;;;;11.60;7.93;;;12.30;99.90;;;;;;5028493;28;20377;-58
2022/10/01 07:15:24;;;;;;;10.68;8.27;;;12.90;99.90;;;;;;5053868;28;20397;-58
2022/10/01 07:17:51;;;;;;;9.27;8.23;;;13.20;99.90;;;;;;5036575;28;20345;-58
2022/10/01 07:20:20;;;;;;;10.55;8.00;;;12.70;99.90;;;;;;5052436;28;20033;-58
2022/10/01 07:22:47;;;;;;;14.15;8.65;;;12.50;99.90;;;;;;5052911;28;20086;-58
2022/10/01 07:25:16;;;;;;;15.75;8.27;;;12.90;99.90;;;;;;5053562;28;20107;-61
2022/10/01 07:27:42;;;;;;;10.50;8.00;;;12.80;99.90;;;;;;5053131;28;20041;-62
2022/10/01 07:30:08;;;;;;;11.85;8.40;;;12.90;99.90;;;;;;5053340;28;20510;-62
2022/10/01 07:32:34;;;;;;;14.18;8.48;;;;;;;;;;5051999;28;20068;-62
2022/10/01 07:35:01;;;;;;;12.88;8.27;;;13.00;99.90;;;;;;5053215;28;20053;-62
2022/10/01 07:37:27;;;;;;;14.88;8.43;;;13.20;99.90;;;;;;5051611;28;20515;-62
2022/10/01 07:39:53;;;;;;;12.18;7.90;;;12.80;99.90;;;;;;5053041;28;20052;-62
2022/10/01 07:42:20;;;;;;;17.92;9.32;;;12.80;99.90;;;;;;5053541;28;20044;-58
2022/10/01 07:44:48;;;;;;;12.63;8.05;;;13.20;99.90;;;;;;5053065;28;20894;-58
2022/10/01 07:47:14;;;;;;;13.00;8.35;;;13.80;99.90;;;;;;5053280;28;20051;-58
2022/10/01 07:49:41;;;;;;;11.40;7.47;;;13.40;99.90;;;;;;5052575;28;20170;-57
2022/10/01 07:52:08;;;;;;;16.17;7.80;;;13.50;99.90;;;;;;5051971;28;20032;-58
2022/10/01 07:54:34;;;;;;;13.75;7.95;;;14.20;99.90;;;;;;5052498;28;20498;-58
2022/10/01 07:57:01;;;;;;;12.27;7.32;;;13.40;99.90;;;;;;5052959;28;20041;-58
2022/10/01 07:59:30;;;;;;;14.57;7.25;;;13.90;99.90;;;;;;5052434;28;20049;-58
2022/10/01 08:01:55;;;;;;;13.27;6.88;;;13.70;99.90;;;;;;5052530;28;20045;-62
2022/10/01 08:07:10;;;;;;;15.48;6.88;;;13.70;99.90;;;;;;5052492;28;20064;-63
2022/10/01 08:09:37;;;;;;;10.27;6.05;;;;;;;;;;5052443;28;20049;-62
2022/10/01 08:12:05;;;;;;;19.17;6.45;;;14.20;99.90;;;;;;5052816;28;20083;-66
2022/10/01 08:14:30;;;;;;;18.15;5.75;;;14.80;99.90;;;;;;5052289;28;20041;-59
2022/10/01 08:16:56;;;;;;;11.77;5.30;;;14.30;99.90;;;;;;5052768;28;20067;-58
2022/10/01 08:19:23;;;;;;;12.60;4.97;;;;;;;;;;5051480;28;20395;-58
2022/10/01 08:21:51;;;;;;;14.02;4.93;;;14.40;99.90;;;;;;5052585;28;20087;-58
2022/10/01 08:24:18;;;;;;;14.15;5.45;;;14.60;99.90;;;;;;5052717;28;20041;-58
2022/10/01 08:26:45;;;;;;;8.63;4.15;;;14.70;99.90;;;;;;5052146;28;20317;-58
2022/10/01 08:29:10;;;;;;;15.68;4.70;;;14.90;99.90;;;;;;5052303;28;20449;-58
2022/10/01 08:31:38;;;;;;;12.65;4.28;;;15.40;99.90;;;;;;5051871;28;20081;-58
2022/10/01 08:34:07;;;;;;;13.93;4.03;;;15.40;99.90;;;;;;5052809;28;20447;-58
2022/10/01 08:36:34;;;;;;;14.00;4.32;;;;;;;;;;5052028;28;20048;-59
2022/10/01 08:39:01;;;;;;;13.98;4.28;;;;;;;;;;5051323;28;20067;-63
2022/10/01 08:41:27;;;;;;;14.10;4.40;;;16.00;99.90;;;;;;5052029;28;20049;-63
2022/10/01 08:43:53;;;;;;;12.15;4.20;;;15.60;99.90;;;;;;5050941;28;20377;-62
2022/10/01 08:46:24;;;;;;;13.55;4.32;;;16.10;99.90;;;;;;5052356;28;20432;-63
2022/10/01 08:48:58;;;;;;;9.95;3.50;;;16.20;99.90;;;;;;5052302;28;20075;-63
2022/10/01 08:51:47;;;;;;;12.60;3.83;;;16.20;99.90;;;;;;5052183;28;20056;-63
2022/10/01 08:54:15;;;;;;;11.43;3.78;;;16.50;99.90;;;;;;5052055;28;20080;-63
2022/10/01 08:56:46;;;;;;;10.90;3.25;;;16.80;99.90;;;;;;5051504;28;20135;-63
2022/10/01 08:59:41;;;;;;;8.60;3.35;;;16.50;99.90;;;;;;5052051;28;20116;-60
2022/10/01 09:02:30;;;;;;;10.75;3.50;;;17.20;99.90;;;;;;5052235;28;20049;-63
2022/10/01 09:04:57;;;;;;;15.05;3.47;;;17.00;99.90;;;;;;5052282;28;20048;-64
2022/10/01 09:07:55;;;;;;;11.75;2.80;;;17.80;99.90;;;;;;5051884;28;20051;-59
2022/10/01 09:10:32;;;;;;;13.50;2.90;;;17.10;99.90;;;;;;5052301;28;20106;-59
2022/10/01 09:13:23;;;;;;;16.52;3.20;;;16.90;99.90;;;;;;5053126;28;20049;-63
2022/10/01 09:16:11;;;;;;;13.68;3.17;;;17.10;99.90;;;;;;5055721;28;20045;-63
2022/10/01 09:18:59;;;;;;;14.98;3.08;;;16.60;99.90;;;;;;5055436;28;20052;-63
2022/10/01 09:21:46;;;;;;;15.82;3.30;;;17.40;99.90;;;;;;5055533;28;20040;-60
2022/10/01 09:24:16;;;;;;;10.20;2.50;;;17.00;99.90;;;;;;5056165;28;20094;-59
2022/10/01 09:26:50;;;;;;;8.93;2.70;;;16.60;99.90;;;;;;5054189;28;20075;-59
2022/10/01 09:29:26;;;;;;;10.95;2.78;;;16.20;99.90;;;;;;5055862;28;20044;-62
2022/10/01 09:31:53;;;;;;;11.52;2.80;;;16.60;99.90;;;;;;5055581;28;20550;-63
2022/10/01 09:34:40;;;;;;;11.73;2.65;;;16.60;99.90;;;;;;5056167;28;20119;-63
2022/10/01 09:37:06;;;;;;;9.15;2.70;;;;;;;;;;5055603;28;20044;-63
2022/10/01 09:39:50;;;;;;;15.30;2.60;;;16.90;99.90;;;;;;5055440;28;20095;-63
2022/10/01 09:42:17;;;;;;;10.27;2.40;;;16.70;99.90;;;;;;5055417;28;20493;-63
2022/10/01 09:44:43;;;;;;;10.75;2.00;;;16.60;99.90;;;;;;5055507;28;20063;-63
2022/10/01 09:47:16;;;;;;;9.85;2.20;;;16.90;99.90;;;;;;5054538;28;20094;-59
2022/10/01 09:49:43;;;;;;;11.85;2.20;;;16.20;99.90;;;;;;5055280;28;20405;-59
2022/10/01 09:52:11;;;;;;;9.82;2.38;;;16.20;99.90;;;;;;5055444;28;20462;-59
2022/10/01 09:54:51;;;;;;;12.10;2.67;;;16.30;99.90;;;;;;5054811;28;20077;-59
2022/10/01 09:57:37;;;;;;;8.73;2.75;;;16.40;99.90;;;;;;5055129;28;20041;-59
2022/10/01 10:00:21;;;;;;;7.30;2.42;;;16.40;99.90;;;;;;5035210;28;20060;-59
2022/10/01 10:02:53;;;;;;;7.85;1.95;;;16.60;99.90;;;;;;5034755;28;20485;-59
2022/10/01 10:05:20;;;;;;;7.95;2.15;;;16.50;99.90;;;;;;5017080;28;20053;-59
2022/10/01 10:08:04;;;;;;;7.70;1.70;;;16.70;99.90;;;;;;5034732;28;20137;-59
2022/10/01 10:10:35;;;;;;;6.55;2.05;;;17.00;99.90;;;;;;5034838;28;20088;-59
2022/10/01 10:13:08;;;;;;;6.32;1.80;;;17.10;99.90;;;;;;5035209;28;20511;-59
2022/10/01 10:15:34;;;;;;;6.95;2.00;;;17.50;99.90;;;;;;5035357;28;20052;-59
2022/10/01 10:18:16;;;;;;;7.97;1.80;;;17.40;99.90;;;;;;5053595;28;20045;-59
2022/10/01 10:20:50;;;;;;;5.93;1.70;;;17.60;99.90;;;;;;5054614;28;20527;-59
2022/10/01 10:23:21;;;;;;;6.28;1.80;;;18.00;99.90;;;;;;5054471;28;20041;-59
2022/10/01 10:26:16;;;;;;;5.65;1.80;;;18.30;99.90;;;;;;5054235;28;20049;-59
2022/10/01 10:28:44;;;;;;;10.45;2.20;;;18.00;99.90;;;;;;5054207;28;20048;-59
2022/10/01 10:31:19;;;;;;;6.72;1.88;;;18.50;99.90;;;;;;5036042;28;20227;-59
2022/10/01 10:33:52;;;;;;;8.05;1.85;;;18.60;99.90;;;;;;5034691;28;20033;-60
2022/10/01 10:36:19;;;;;;;9.15;2.20;;;18.10;99.90;;;;;;5034671;28;20075;-59
2022/10/01 10:38:52;;;;;;;9.32;2.25;;;19.00;99.90;;;;;;5034292;28;20117;-59
2022/10/01 10:41:24;;;;;;;10.90;1.90;;;18.80;99.90;;;;;;5034750;28;20110;-59
2022/10/01 10:44:03;;;;;;;11.05;2.10;;;18.80;99.90;;;;;;5034535;28;20087;-59
2022/10/01 10:46:34;;;;;;;8.45;2.50;;;18.60;99.90;;;;;;5033962;28;20494;-59
2022/10/01 10:49:26;;;;;;;9.35;2.65;;;18.80;99.90;;;;;;5075150;28;20053;-59
2022/10/01 10:51:54;;;;;;;8.65;2.55;;;18.10;99.90;;;;;;5053989;28;20508;-58
2022/10/01 10:54:32;;;;;;;8.90;2.42;;;17.40;99.90;;;;;;5054443;28;20423;-59
2022/10/01 10:57:20;;;;;;;9.68;2.30;;;17.30;99.90;;;;;;5051381;28;20041;-58
2022/10/01 11:00:10;;;;;;;12.70;2.72;;;16.60;99.90;;;;;;5053437;28;20397;-59
2022/10/01 11:02:39;;;;;;;18.17;3.60;;;16.50;99.90;;;;;;5055339;28;20037;-58
2022/10/01 11:05:29;;;;;;;12.93;3.00;;;16.20;99.90;;;;;;5054994;28;20037;-58
2022/10/01 11:08:02;;;;;;;10.95;2.88;;;16.40;99.90;;;;;;5054896;28;20099;-58
2022/10/01 11:11:06;;;;;;;9.55;2.42;;;16.00;99.90;;;;;;5055223;28;20045;-58
2022/10/01 11:13:41;;;;;;;9.00;2.38;;;15.20;99.90;;;;;;5036659;28;20049;-59
2022/10/01 11:16:36;;;;;;;7.17;2.43;;;15.70;99.90;;;;;;5054771;28;20680;-58
2022/10/01 11:19:19;;;;;;;9.48;2.10;;;15.00;99.90;;;;;;5054639;28;20302;-58
2022/10/01 11:22:16;;;;;;;20.15;2.20;;;14.80;99.90;;;;;;5054546;28;20040;-58
2022/10/01 11:25:42;;;;;;;9.43;1.90;;;14.40;99.90;;;;;;5052889;28;20037;-58
2022/10/01 11:28:21;;;;;;;7.68;1.92;;;14.30;99.90;;;;;;4992094;28;20057;-59
2022/10/01 11:31:12;;;;;;;5.95;1.80;;;14.80;99.90;;;;;;4992966;28;20039;-58
2022/10/01 11:33:58;;;;;;;10.65;2.00;;;14.70;99.90;;;;;;4993110;28;20046;-58
2022/10/01 11:36:40;;;;;;;6.82;2.00;;;14.40;99.90;;;;;;4963265;28;20088;-59
2022/10/01 11:39:17;;;;;;;5.93;1.90;;;14.50;99.90;;;;;;4974863;28;20050;-59
2022/10/01 11:41:54;;;;;;;8.10;1.83;;;14.70;99.90;;;;;;4992106;28;20398;-59
2022/10/01 11:44:41;;;;;;;7.28;2.10;;;14.70;99.90;;;;;;4992371;28;20057;-59
2022/10/01 11:47:14;;;;;;;4.93;1.60;;;14.70;99.90;;;;;;4992061;28;20055;-59
2022/10/01 11:49:58;;;;;;;8.15;1.95;;;14.80;99.90;;;;;;4992323;28;20038;-59
2022/10/01 11:52:45;;;;;;;7.28;1.70;;;14.70;99.90;;;;;;4992086;28;20118;-59
2022/10/01 11:58:51;;;;;;;10.23;2.05;;;14.60;99.90;;;;;;5003346;28;20391;-59
2022/10/01 12:01:25;;;;;;;6.60;1.95;;;15.20;99.90;;;;;;5053995;28;20041;-59
2022/10/01 12:03:51;;;;;;;6.25;1.70;;;14.80;99.90;;;;;;5053874;28;20048;-59
2022/10/01 12:06:27;;;;;;;8.15;1.75;;;14.90;99.90;;;;;;5053888;28;20080;-59
2022/10/01 12:09:04;;;;;;;6.97;1.85;;;14.90;99.90;;;;;;5053338;28;20093;-59
2022/10/01 12:11:49;;;;;;;7.70;2.00;;;14.60;99.90;;;;;;5051910;28;20382;-60
2022/10/01 12:14:30;;;;;;;9.52;2.30;;;14.70;99.90;;;;;;5053633;28;20538;-59
2022/10/01 12:17:05;;;;;;;8.05;2.30;;;15.50;99.90;;;;;;5053866;28;20159;-59
2022/10/01 12:19:34;;;;;;;10.25;2.40;;;15.50;99.90;;;;;;5053826;28;20050;-59
2022/10/01 12:22:19;;;;;;;11.38;2.30;;;15.60;99.90;;;;;;5053695;28;20056;-59
2022/10/01 12:24:46;;;;;;;13.57;2.22;;;15.80;99.90;;;;;;5053289;28;20515;-59
2022/10/01 12:27:36;;;;;;;12.68;2.65;;;16.20;99.90;;;;;;5053658;28;20147;-58
2022/10/01 12:30:10;;;;;;;11.45;2.58;;;16.10;99.90;;;;;;5052975;28;20037;-59
2022/10/01 12:33:05;;;;;;;14.13;3.10;;;16.20;99.90;;;;;;5053481;28;20119;-59
2022/10/01 12:35:55;;;;;;;16.40;2.88;;;16.60;99.90;;;;;;5052868;28;20170;-59
2022/10/01 12:38:41;;;;;;;12.18;2.95;;;16.10;99.90;;;;;;5053465;28;20051;-59
2022/10/01 12:41:32;;;;;;;11.30;2.80;;;16.30;99.90;;;;;;5053377;28;20048;-58
2022/10/01 12:44:26;;;;;;;13.00;3.70;;;15.90;99.90;;;;;;5053289;28;20400;-59
2022/10/01 12:46:54;;;;;;;13.50;3.25;;;16.10;99.90;;;;;;5053146;28;20037;-59
2022/10/01 12:49:27;;;;;;;15.48;3.83;;;15.80;99.90;;;;;;5053503;28;20064;-59
2022/10/01 12:52:15;;;;;;;14.88;3.47;;;16.20;99.90;;;;;;5053051;28;20114;-59
2022/10/01 12:55:28;;;;;;;12.07;2.90;;;16.10;99.90;;;;;;5053359;28;20045;-59
2022/10/01 12:58:11;;;;;;;15.52;3.40;;;16.00;99.90;;;;;;5048052;28;20057;-59
2022/10/01 13:00:44;;;;;;;14.82;3.42;;;16.70;99.90;;;;;;5053072;28;20508;-59
2022/10/01 13:03:58;;;;;;;15.88;4.60;;;16.70;99.90;;;;;;5051816;28;20554;-59
2022/10/01 13:06:36;;;;;;;11.95;4.05;;;16.70;99.90;;;;;;5050214;28;20057;-62
2022/10/01 13:09:20;;;;;;;13.43;2.92;;;16.80;99.90;;;;;;5052829;28;20496;-62
2022/10/01 13:12:02;;;;;;;32.63;12.98;;;16.80;99.90;;;;;;5053079;28;20041;-62
2022/10/01 13:14:32;;;;;;;11.80;2.40;;;16.80;99.90;;;;;;5052938;28;20044;-62
2022/10/01 13:17:22;;;;;;;12.20;3.65;;;16.80;99.90;;;;;;5051566;28;20052;-63
2022/10/01 13:19:54;;;;;;;20.60;5.53;;;16.80;99.90;;;;;;5053102;28;20056;-62
2022/10/01 13:22:27;;;;;;;13.13;2.88;;;16.90;99.90;;;;;;5053218;28;20428;-63
2022/10/01 13:25:41;;;;;;;12.48;2.58;;;16.20;99.90;;;;;;5052858;28;20048;-62